Time;durP1;ratioP1;P1;durP2;ratioP2;P2;SDS_P1;SDS_P2;PMS_P1;PMS_P2;Temp;Humidity;BMP_temperature;BMP_pressure;BME280_temperature;BME280_humidity;BME280_pressure;Samples;Min_cycle;Max_cycle;Signal;HPM_P1;HPM_P2
2021/10/02 00:34:43;;;;;;;;;;;20.40;62.30;;;;;;5051481;28;1291;-69
2021/10/02 00:45:03;;;;;;;;;;;20.40;62.40;;;;;;5052194;28;1131;-70
2021/10/02 00:47:32;;;;;;;;;;;20.40;62.40;;;;;;5052033;28;1345;-68
2021/10/02 00:49:57;;;;;;;;;;;20.40;62.40;;;;;;5052282;28;1177;-67
2021/10/02 00:52:23;;;;;;;;;;;20.40;62.40;;;;;;5035603;28;1424;-68
2021/10/02 00:54:48;;;;;;;;;;;20.40;62.40;;;;;;5036680;28;1687;-69
2021/10/02 00:57:14;;;;;;;;;;;20.40;62.40;;;;;;5054497;28;1396;-68
2021/10/02 00:59:40;;;;;;;;;;;20.40;62.50;;;;;;5036653;28;1959;-68
2021/10/02 01:02:08;;;;;;;;;;;20.40;62.50;;;;;;5036155;28;1694;-68
2021/10/02 01:05:06;;;;;;;;;;;20.40;62.60;;;;;;5054963;28;1388;-68
2021/10/02 01:07:53;;;;;;;;;;;20.30;62.50;;;;;;4999992;28;1350;-67
2021/10/02 01:10:38;;;;;;;;;;;20.40;62.70;;;;;;5035878;28;1718;-68
2021/10/02 01:13:06;;;;;;;;;;;20.40;62.70;;;;;;5054581;28;1089;-70
2021/10/02 01:15:32;;;;;;;;;;;20.30;62.70;;;;;;5023371;28;1701;-68
2021/10/02 01:17:59;;;;;;;;;;;20.40;62.70;;;;;;5054032;28;1407;-68
2021/10/02 01:20:33;;;;;;;;;;;20.40;62.80;;;;;;5053117;28;1898;-68
2021/10/02 01:23:11;;;;;;;;;;;20.40;62.80;;;;;;5054821;28;1421;-67
2021/10/02 01:25:51;;;;;;;;;;;20.40;62.80;;;;;;5036288;28;1315;-67
2021/10/02 01:28:17;;;;;;;;;;;20.40;62.90;;;;;;5035857;28;1410;-70
2021/10/02 01:33:36;;;;;;;;;;;20.30;62.80;;;;;;5037776;28;1281;-69
2021/10/02 01:36:23;;;;;;;;;;;20.40;62.90;;;;;;5021344;28;1425;-68
2021/10/02 01:49:36;;;;;;;;;;;20.40;62.90;;;;;;5037237;28;1463;-68
2021/10/02 01:52:02;;;;;;;;;;;20.40;62.80;;;;;;5034873;28;1182;-68
2021/10/02 01:54:27;;;;;;;;;;;20.50;62.90;;;;;;5034916;28;1584;-67
2021/10/02 01:56:53;;;;;;;;;;;20.50;62.80;;;;;;5035997;28;1111;-68
2021/10/02 01:59:18;;;;;;;;;;;20.50;62.70;;;;;;5035050;28;1975;-67
2021/10/02 02:01:44;;;;;;;;;;;20.50;62.70;;;;;;5018537;28;1645;-67
2021/10/02 02:04:10;;;;;;;;;;;20.50;62.60;;;;;;5035855;28;1518;-68
2021/10/02 02:06:35;;;;;;;;;;;20.50;63.30;;;;;;5052513;28;1642;-67
2021/10/02 02:09:01;;;;;;;;;;;20.60;62.60;;;;;;5034859;28;1756;-67
2021/10/02 02:11:27;;;;;;;;;;;20.60;62.50;;;;;;5034615;28;1362;-68
2021/10/02 02:13:52;;;;;;;;;;;20.60;62.40;;;;;;5047179;28;1692;-68
2021/10/02 02:16:18;;;;;;;;;;;20.60;62.40;;;;;;5028519;28;1411;-68
2021/10/02 02:18:43;;;;;;;;;;;20.60;62.40;;;;;;5035415;28;1950;-67
2021/10/02 02:21:09;;;;;;;;;;;20.60;62.40;;;;;;5052199;28;1595;-67
2021/10/02 02:23:35;;;;;;;;;;;20.60;62.30;;;;;;5035353;28;1732;-67
2021/10/02 02:26:03;;;;;;;;;;;20.60;62.30;;;;;;5015669;28;1710;-68
2021/10/02 02:28:29;;;;;;;;;;;20.70;62.30;;;;;;5052581;28;1359;-68
2021/10/02 02:30:55;;;;;;;;;;;20.70;62.30;;;;;;5052168;28;1120;-69
2021/10/02 02:33:20;;;;;;;;;;;20.70;62.30;;;;;;5035167;28;1626;-70
2021/10/02 02:35:46;;;;;;;;;;;20.70;62.20;;;;;;5035309;28;847;-68
2021/10/02 02:38:12;;;;;;;;;;;20.70;62.20;;;;;;5035211;28;1656;-69
2021/10/02 02:40:37;;;;;;;;;;;20.70;62.20;;;;;;5051598;28;1878;-69
2021/10/02 02:43:02;;;;;;;;;;;20.70;62.20;;;;;;5034958;28;1223;-68
2021/10/02 02:45:28;;;;;;;;;;;20.70;62.20;;;;;;5035324;28;1382;-66
2021/10/02 02:47:56;;;;;;;;;;;20.70;62.20;;;;;;5034985;28;1591;-67
2021/10/02 02:50:26;;;;;;;;;;;20.70;62.20;;;;;;5034058;28;1414;-68
2021/10/02 02:52:55;;;;;;;;;;;20.70;62.20;;;;;;5052847;28;1667;-68
2021/10/02 02:55:21;;;;;;;;;;;20.70;62.20;;;;;;5035147;28;1717;-69
2021/10/02 02:57:47;;;;;;;;;;;20.70;62.20;;;;;;5052949;28;1310;-68
2021/10/02 03:00:16;;;;;;;;;;;20.70;62.20;;;;;;5051251;28;1902;-68
2021/10/02 03:02:42;;;;;;;;;;;20.70;62.20;;;;;;5022095;28;1678;-68
2021/10/02 03:05:07;;;;;;;;;;;20.70;62.30;;;;;;5034418;28;1397;-69
2021/10/02 03:07:33;;;;;;;;;;;20.70;62.30;;;;;;5052804;28;1404;-69
2021/10/02 03:09:58;;;;;;;;;;;20.70;62.30;;;;;;5034657;28;1659;-69
2021/10/02 03:12:36;;;;;;;;;;;20.70;62.30;;;;;;5034412;28;1670;-69
2021/10/02 03:15:02;;;;;;;;;;;20.70;62.40;;;;;;5035015;28;1485;-68
2021/10/02 03:17:28;;;;;;;;;;;20.70;62.40;;;;;;5034702;28;1379;-68
2021/10/02 03:19:54;;;;;;;;;;;20.70;62.40;;;;;;5033774;28;1906;-67
2021/10/02 03:22:19;;;;;;;;;;;20.70;62.50;;;;;;5034193;28;1827;-69
2021/10/02 03:24:44;;;;;;;;;;;20.70;62.50;;;;;;5034315;28;1371;-68
2021/10/02 03:27:10;;;;;;;;;;;20.70;62.60;;;;;;5034399;28;1695;-67
2021/10/02 03:29:35;;;;;;;;;;;20.70;62.60;;;;;;5034300;28;1323;-67
2021/10/02 03:32:04;;;;;;;;;;;20.70;62.60;;;;;;5033852;28;1732;-68
2021/10/02 03:34:30;;;;;;;;;;;20.70;62.70;;;;;;5034730;28;1665;-67
2021/10/02 03:36:55;;;;;;;;;;;20.70;62.80;;;;;;5034792;28;1703;-68
2021/10/02 03:39:20;;;;;;;;;;;20.70;62.80;;;;;;5034059;28;1886;-67
2021/10/02 03:42:05;;;;;;;;;;;20.60;62.70;;;;;;5033918;28;1409;-67
2021/10/02 03:44:30;;;;;;;;;;;20.60;62.80;;;;;;5052137;28;1392;-67
2021/10/02 03:46:55;;;;;;;;;;;20.70;62.90;;;;;;5052230;28;1649;-67
2021/10/02 03:49:21;;;;;;;;;;;20.60;62.80;;;;;;5051920;28;1710;-67
2021/10/02 03:51:46;;;;;;;;;;;20.70;62.90;;;;;;5051735;28;1375;-67
2021/10/02 03:54:12;;;;;;;;;;;20.60;62.90;;;;;;5051991;28;1338;-68
2021/10/02 03:56:37;;;;;;;;;;;20.60;63.00;;;;;;5051983;28;1382;-66
2021/10/02 03:59:03;;;;;;;;;;;20.60;63.00;;;;;;5051653;28;1887;-68
2021/10/02 04:01:28;;;;;;;;;;;20.60;63.00;;;;;;5051276;28;1349;-68
2021/10/02 04:03:53;;;;;;;;;;;20.60;63.00;;;;;;5051936;28;945;-67
2021/10/02 04:06:19;;;;;;;;;;;20.60;63.00;;;;;;5051869;28;1681;-67
2021/10/02 04:08:45;;;;;;;;;;;20.60;63.10;;;;;;5052010;28;1647;-68
2021/10/02 04:11:10;;;;;;;;;;;20.60;63.10;;;;;;5051208;28;1388;-68
2021/10/02 04:13:35;;;;;;;;;;;20.70;63.10;;;;;;5048029;28;1417;-67
2021/10/02 04:16:01;;;;;;;;;;;20.70;63.10;;;;;;5042469;28;1382;-67
2021/10/02 04:18:26;;;;;;;;;;;20.70;63.00;;;;;;5048240;23;2258;-73
2021/10/02 04:20:52;;;;;;;;;;;20.80;62.90;;;;;;5054490;28;1580;-72
2021/10/02 04:23:17;;;;;;;;;;;20.80;62.70;;;;;;5055615;28;1641;-72
2021/10/02 04:25:43;;;;;;;;;;;20.90;62.60;;;;;;5037400;28;1057;-72
2021/10/02 04:28:08;;;;;;;;;;;21.00;62.50;;;;;;5050271;28;1638;-72
2021/10/02 04:30:33;;;;;;;;;;;21.10;62.40;;;;;;5034997;28;1345;-72
2021/10/02 04:32:59;;;;;;;;;;;21.10;62.10;;;;;;5035317;28;1795;-72
2021/10/02 04:35:24;;;;;;;;;;;21.20;62.00;;;;;;5034840;28;852;-72
2021/10/02 04:37:50;;;;;;;;;;;21.20;61.80;;;;;;5035362;28;1449;-71
2021/10/02 04:40:15;;;;;;;;;;;21.30;61.60;;;;;;5034558;28;1902;-71
2021/10/02 04:42:41;;;;;;;;;;;21.30;61.40;;;;;;5017749;28;1661;-71
2021/10/02 04:45:06;;;;;;;;;;;21.40;61.30;;;;;;5035230;28;1376;-71
2021/10/02 04:47:32;;;;;;;;;;;21.40;61.10;;;;;;5034605;28;1669;-71
2021/10/02 04:49:57;;;;;;;;;;;21.40;61.00;;;;;;5034047;28;1580;-71
2021/10/02 04:52:23;;;;;;;;;;;21.40;60.80;;;;;;5034968;28;1408;-71
2021/10/02 04:54:48;;;;;;;;;;;21.50;60.80;;;;;;5034693;28;1668;-71
2021/10/02 04:57:13;;;;;;;;;;;21.50;60.70;;;;;;5035142;28;1641;-71
2021/10/02 04:59:39;;;;;;;;;;;21.50;60.50;;;;;;5034548;28;1965;-71
2021/10/02 05:02:04;;;;;;;;;;;21.60;60.50;;;;;;5034285;28;1291;-71
2021/10/02 05:04:30;;;;;;;;;;;21.60;60.40;;;;;;5016972;28;1686;-71
2021/10/02 05:06:55;;;;;;;;;;;21.60;60.40;;;;;;5017115;28;1099;-71
2021/10/02 05:09:21;;;;;;;;;;;21.60;60.30;;;;;;5034501;28;1417;-71
2021/10/02 05:11:46;;;;;;;;;;;21.60;60.30;;;;;;5033477;28;1611;-71
2021/10/02 05:14:11;;;;;;;;;;;21.70;60.20;;;;;;5025659;28;1531;-72
2021/10/02 05:16:37;;;;;;;;;;;21.70;60.20;;;;;;5030081;28;1628;-71
2021/10/02 05:19:02;;;;;;;;;;;21.70;60.10;;;;;;5033221;28;1918;-71
2021/10/02 05:21:28;;;;;;;;;;;21.70;60.10;;;;;;5033827;28;1547;-71
2021/10/02 05:23:53;;;;;;;;;;;21.70;60.10;;;;;;5016764;28;1329;-71
2021/10/02 05:26:19;;;;;;;;;;;21.70;60.10;;;;;;5007094;28;2206;-72
2021/10/02 05:28:44;;;;;;;;;;;21.70;60.00;;;;;;5026311;28;1966;-72
2021/10/02 05:31:10;;;;;;;;;;;21.70;60.00;;;;;;5023681;28;1502;-73
2021/10/02 05:33:35;;;;;;;;;;;21.70;60.00;;;;;;5023705;28;1563;-68
2021/10/02 05:36:01;;;;;;;;;;;21.70;60.00;;;;;;5032832;28;1357;-69
2021/10/02 05:38:26;;;;;;;;;;;21.70;60.00;;;;;;5033009;28;1902;-69
2021/10/02 05:40:51;;;;;;;;;;;21.80;60.10;;;;;;5016057;28;1649;-68
2021/10/02 05:43:17;;;;;;;;;;;21.70;60.10;;;;;;5033881;28;1353;-68
2021/10/02 05:45:42;;;;;;;;;;;21.70;60.10;;;;;;5032515;28;1420;-68
2021/10/02 05:48:08;;;;;;;;;;;21.70;60.10;;;;;;5015334;28;1471;-69
2021/10/02 05:50:33;;;;;;;;;;;21.70;60.10;;;;;;5014455;28;1695;-68
2021/10/02 05:52:59;;;;;;;;;;;21.70;60.20;;;;;;5032544;28;1647;-68
2021/10/02 05:55:24;;;;;;;;;;;21.70;60.20;;;;;;5032800;28;1342;-69
2021/10/02 05:57:50;;;;;;;;;;;21.70;60.30;;;;;;5014643;28;1180;-68
2021/10/02 06:00:15;;;;;;;;;;;21.70;60.30;;;;;;5032070;28;1957;-68
2021/10/02 06:02:40;;;;;;;;;;;21.70;60.40;;;;;;5032865;28;1657;-69
2021/10/02 06:05:06;;;;;;;;;;;21.70;60.40;;;;;;5014609;28;1658;-69
2021/10/02 06:07:34;;;;;;;;;;;21.60;60.40;;;;;;5032175;28;1652;-68
2021/10/02 06:10:00;;;;;;;;;;;21.60;60.50;;;;;;5014553;28;1417;-69
2021/10/02 06:12:25;;;;;;;;;;;21.60;60.50;;;;;;5032330;28;1178;-68
2021/10/02 06:14:51;;;;;;;;;;;21.60;60.50;;;;;;5014433;28;1637;-70
2021/10/02 06:17:16;;;;;;;;;;;21.60;60.50;;;;;;5032174;28;1401;-70
2021/10/02 06:19:42;;;;;;;;;;;21.60;60.40;;;;;;5032155;28;2376;-69
2021/10/02 06:22:07;;;;;;;;;;;21.60;59.70;;;;;;5031598;28;1381;-69
2021/10/02 06:24:34;;;;;;;;;;;21.60;58.80;;;;;;5031619;28;1676;-69
2021/10/02 06:26:59;;;;;;;;;;;21.50;58.20;;;;;;5014587;28;1676;-68
2021/10/02 06:29:25;;;;;;;;;;;21.50;57.80;;;;;;5014207;28;1531;-70
2021/10/02 06:31:50;;;;;;;;;;;21.50;57.60;;;;;;5030512;28;1129;-73
2021/10/02 06:34:16;;;;;;;;;;;21.50;57.10;;;;;;5031829;28;1702;-72
2021/10/02 06:36:42;;;;;;;;;;;21.50;56.90;;;;;;5031971;28;800;-74
2021/10/02 06:39:07;;;;;;;;;;;21.40;56.60;;;;;;5007762;28;2254;-70
2021/10/02 06:41:33;;;;;;;;;;;21.40;56.50;;;;;;4999820;28;1763;-72
2021/10/02 06:43:58;;;;;;;;;;;21.40;56.30;;;;;;5013886;28;1618;-70
2021/10/02 06:46:24;;;;;;;;;;;21.40;56.20;;;;;;5013169;28;1417;-72
2021/10/02 06:48:49;;;;;;;;;;;21.30;56.10;;;;;;5019647;28;2182;-72
2021/10/02 06:51:15;;;;;;;;;;;21.30;55.90;;;;;;5020205;28;2287;-71
2021/10/02 06:53:40;;;;;;;;;;;21.30;55.90;;;;;;5034356;28;1829;-69
2021/10/02 06:56:05;;;;;;;;;;;21.30;55.90;;;;;;5029641;28;1435;-73
2021/10/02 06:58:31;;;;;;;;;;;21.30;56.50;;;;;;5013154;28;2042;-69
2021/10/02 07:00:57;;;;;;;;;;;21.20;55.80;;;;;;5034861;28;1218;-68
2021/10/02 07:03:22;;;;;;;;;;;21.20;55.80;;;;;;5032229;28;1275;-68
2021/10/02 07:05:48;;;;;;;;;;;21.20;55.50;;;;;;5036146;28;1399;-68
2021/10/02 07:08:14;;;;;;;;;;;21.20;55.60;;;;;;5030563;28;1232;-68
2021/10/02 07:10:40;;;;;;;;;;;21.20;55.70;;;;;;5029835;28;1153;-69
2021/10/02 07:13:05;;;;;;;;;;;21.10;55.70;;;;;;5029711;28;1389;-68
2021/10/02 07:15:31;;;;;;;;;;;21.10;55.60;;;;;;5031780;28;1310;-68
2021/10/02 07:17:56;;;;;;;;;;;21.10;55.70;;;;;;5033058;28;1369;-68
2021/10/02 07:20:28;;;;;;;;;;;21.10;55.70;;;;;;5037157;28;1902;-68
2021/10/02 07:22:53;;;;;;;;;;;21.10;55.50;;;;;;5023770;28;1166;-68
2021/10/02 07:25:19;;;;;;;;;;;21.10;55.70;;;;;;5014436;28;1317;-68
2021/10/02 07:27:44;;;;;;;;;;;21.00;55.80;;;;;;5014773;28;1255;-68
2021/10/02 07:30:10;;;;;;;;;;;21.00;55.70;;;;;;5031884;28;1332;-68
2021/10/02 07:32:35;;;;;;;;;;;21.00;55.80;;;;;;5032460;28;1297;-68
2021/10/02 07:35:01;;;;;;;;;;;21.00;55.70;;;;;;5031831;28;1285;-68
2021/10/02 07:37:26;;;;;;;;;;;21.00;55.90;;;;;;5032125;28;1257;-68
2021/10/02 07:39:52;;;;;;;;;;;21.00;56.10;;;;;;5031915;28;1898;-68
2021/10/02 07:42:17;;;;;;;;;;;21.00;55.90;;;;;;5032150;28;1268;-68
2021/10/02 07:44:43;;;;;;;;;;;20.90;55.80;;;;;;5031770;28;1303;-68
2021/10/02 07:47:08;;;;;;;;;;;20.90;56.00;;;;;;5032286;28;1227;-68
2021/10/02 07:49:34;;;;;;;;;;;20.90;56.10;;;;;;5032010;28;1259;-68
2021/10/02 07:51:59;;;;;;;;;;;20.90;55.70;;;;;;5018050;28;1553;-68
2021/10/02 07:54:25;;;;;;;;;;;20.90;56.00;;;;;;5036136;28;1353;-68
2021/10/02 07:56:50;;;;;;;;;;;20.90;55.90;;;;;;5035880;28;1280;-68
2021/10/02 07:59:16;;;;;;;;;;;20.80;55.80;;;;;;5036076;28;1953;-68
2021/10/02 08:01:41;;;;;;;;;;;20.80;56.20;;;;;;5018059;28;1373;-68
2021/10/02 08:04:07;;;;;;;;;;;20.80;56.10;;;;;;5036384;28;1327;-68
2021/10/02 08:06:33;;;;;;;;;;;20.80;55.80;;;;;;5035365;28;1292;-68
2021/10/02 08:08:58;;;;;;;;;;;20.80;56.20;;;;;;5036320;28;1355;-68
2021/10/02 08:11:24;;;;;;;;;;;20.80;56.00;;;;;;5017950;28;1361;-68
2021/10/02 08:13:49;;;;;;;;;;;20.70;56.10;;;;;;5023082;28;1585;-68
2021/10/02 08:16:15;;;;;;;;;;;20.70;56.30;;;;;;5035286;28;1410;-68
2021/10/02 08:18:40;;;;;;;;;;;20.70;56.50;;;;;;5017478;28;1906;-68
2021/10/02 08:21:06;;;;;;;;;;;20.70;56.70;;;;;;5035076;28;1304;-68
2021/10/02 08:23:33;;;;;;;;;;;20.70;56.30;;;;;;5035950;28;1185;-68
2021/10/02 08:25:58;;;;;;;;;;;20.70;56.40;;;;;;5017974;28;1394;-67
2021/10/02 08:28:24;;;;;;;;;;;20.70;56.30;;;;;;5017380;28;1352;-68
2021/10/02 08:30:49;;;;;;;;;;;20.70;56.70;;;;;;5017265;28;1356;-68
2021/10/02 08:33:15;;;;;;;;;;;20.60;56.70;;;;;;5018060;28;1358;-68
2021/10/02 08:35:41;;;;;;;;;;;20.60;56.80;;;;;;5017512;28;1304;-68
2021/10/02 08:38:07;;;;;;;;;;;20.60;56.80;;;;;;5035156;28;1319;-68
2021/10/02 08:40:32;;;;;;;;;;;20.60;56.90;;;;;;5003745;28;1886;-68
2021/10/02 08:42:57;;;;;;;;;;;20.60;56.80;;;;;;5035476;28;1081;-68
2021/10/02 08:45:23;;;;;;;;;;;20.60;56.70;;;;;;5035017;28;1328;-68
2021/10/02 08:47:48;;;;;;;;;;;20.60;56.90;;;;;;5017276;28;1373;-68
2021/10/02 08:50:17;;;;;;;;;;;20.60;57.70;;;;;;5034016;28;1103;-68
2021/10/02 08:52:42;;;;;;;;;;;20.60;57.00;;;;;;5017836;28;1100;-68
2021/10/02 08:55:08;;;;;;;;;;;20.60;56.90;;;;;;5016915;28;1308;-68
2021/10/02 08:57:34;;;;;;;;;;;20.60;57.20;;;;;;5034859;28;1464;-68
2021/10/02 09:00:00;;;;;;;;;;;20.60;57.30;;;;;;5034290;28;1890;-68
2021/10/02 09:02:25;;;;;;;;;;;20.60;56.80;;;;;;5034404;28;1016;-68
2021/10/02 09:04:51;;;;;;;;;;;20.60;57.00;;;;;;5034143;28;1329;-68
2021/10/02 09:07:16;;;;;;;;;;;20.50;57.20;;;;;;5034959;28;1351;-68
2021/10/02 09:09:43;;;;;;;;;;;20.50;57.10;;;;;;5034562;28;1343;-68
2021/10/02 09:12:09;;;;;;;;;;;20.50;57.10;;;;;;5034266;28;1160;-68
2021/10/02 09:14:34;;;;;;;;;;;20.50;57.20;;;;;;5034684;28;1342;-68
2021/10/02 09:17:00;;;;;;;;;;;20.50;57.40;;;;;;5034270;28;1263;-68
2021/10/02 09:19:25;;;;;;;;;;;20.50;57.20;;;;;;5034180;28;1977;-68
2021/10/02 09:21:56;;;;;;;;;;;20.50;57.20;;;;;;5016273;28;1234;-68
2021/10/02 09:24:22;;;;;;;;;;;20.50;57.10;;;;;;5034769;28;1427;-68
2021/10/02 09:26:47;;;;;;;;;;;20.50;57.20;;;;;;5016359;28;1447;-68
2021/10/02 09:29:14;;;;;;;;;;;20.50;57.50;;;;;;5034430;28;1283;-68
2021/10/02 09:31:39;;;;;;;;;;;20.50;57.10;;;;;;5034173;28;1256;-68
2021/10/02 09:34:05;;;;;;;;;;;20.50;57.30;;;;;;5034324;28;1273;-68
2021/10/02 09:36:30;;;;;;;;;;;20.40;57.20;;;;;;5034083;28;1253;-68
2021/10/02 09:38:55;;;;;;;;;;;20.50;57.10;;;;;;5030895;28;1898;-68
2021/10/02 09:41:21;;;;;;;;;;;20.50;57.00;;;;;;5032253;28;1458;-68
2021/10/02 09:43:50;;;;;;;;;;;20.50;57.10;;;;;;5016755;28;1269;-68
2021/10/02 09:46:16;;;;;;;;;;;20.50;57.30;;;;;;5033867;28;1303;-68
2021/10/02 09:48:41;;;;;;;;;;;20.50;57.50;;;;;;5033729;28;1304;-68
2021/10/02 09:51:08;;;;;;;;;;;20.50;57.40;;;;;;5015412;28;1242;-68
2021/10/02 09:53:40;;;;;;;;;;;20.50;57.50;;;;;;5016648;28;1313;-68
2021/10/02 09:56:10;;;;;;;;;;;20.50;57.80;;;;;;5034036;28;1306;-68
2021/10/02 09:58:36;;;;;;;;;;;20.40;57.70;;;;;;5016203;28;1902;-68
2021/10/02 10:01:04;;;;;;;;;;;20.50;57.90;;;;;;5032988;28;1308;-68
2021/10/02 10:03:39;;;;;;;;;;;20.50;57.70;;;;;;5016621;28;1337;-68
2021/10/02 10:06:12;;;;;;;;;;;20.50;57.70;;;;;;5015694;28;1283;-67
2021/10/02 10:08:37;;;;;;;;;;;20.50;57.80;;;;;;5016041;28;1345;-67
2021/10/02 10:11:07;;;;;;;;;;;20.50;58.00;;;;;;5015135;28;1081;-67
2021/10/02 10:13:32;;;;;;;;;;;20.50;58.00;;;;;;5032780;28;1279;-68
2021/10/02 10:15:57;;;;;;;;;;;20.50;57.90;;;;;;5033296;28;1303;-68
2021/10/02 10:18:38;;;;;;;;;;;20.50;57.90;;;;;;5038850;23;2007;-69
2021/10/02 10:21:10;;;;;;;;;;;20.50;57.90;;;;;;5015157;28;1687;-69
2021/10/02 10:23:36;;;;;;;;;;;20.50;58.00;;;;;;5015943;28;1075;-70
2021/10/02 10:26:03;;;;;;;;;;;20.50;57.90;;;;;;5032975;28;1330;-69
2021/10/02 10:28:29;;;;;;;;;;;20.50;57.90;;;;;;5012858;28;1291;-68
2021/10/02 10:31:07;;;;;;;;;;;20.50;58.00;;;;;;4995456;28;1332;-69
2021/10/02 10:33:33;;;;;;;;;;;20.50;58.00;;;;;;5013785;28;1269;-68
2021/10/02 10:36:04;;;;;;;;;;;20.50;58.00;;;;;;5089884;27;1403;-69
2021/10/02 10:38:30;;;;;;;;;;;20.40;57.90;;;;;;5122065;28;1378;-69
2021/10/02 10:40:56;;;;;;;;;;;20.50;58.00;;;;;;5054785;28;1340;-70
2021/10/02 10:43:23;;;;;;;;;;;20.50;57.90;;;;;;5085523;28;1386;-70
2021/10/02 10:45:48;;;;;;;;;;;20.50;58.00;;;;;;5085126;28;1171;-69
2021/10/02 10:48:13;;;;;;;;;;;20.50;58.00;;;;;;5075349;28;1378;-70
2021/10/02 10:50:40;;;;;;;;;;;20.50;58.10;;;;;;5085150;28;1423;-70
2021/10/02 10:53:05;;;;;;;;;;;20.50;58.10;;;;;;5069634;28;1157;-69
2021/10/02 10:55:31;;;;;;;;;;;20.50;58.00;;;;;;5084689;28;1975;-70
2021/10/02 10:57:58;;;;;;;;;;;20.50;58.10;;;;;;5069246;28;1336;-69
2021/10/02 11:00:29;;;;;;;;;;;20.50;58.20;;;;;;5084742;28;2070;-70
2021/10/02 11:02:55;;;;;;;;;;;20.50;58.20;;;;;;5069519;28;1127;-70
2021/10/02 11:05:36;;;;;;;;;;;20.50;58.20;;;;;;5084899;28;1206;-70
2021/10/02 11:08:02;;;;;;;;;;;20.50;58.20;;;;;;5068777;28;1344;-70
2021/10/02 11:10:46;;;;;;;;;;;20.50;58.30;;;;;;5084348;28;1337;-69
2021/10/02 11:13:12;;;;;;;;;;;20.50;58.20;;;;;;5069163;28;1104;-69
2021/10/02 11:15:37;;;;;;;;;;;20.50;58.30;;;;;;5078571;28;1902;-70
2021/10/02 11:18:03;;;;;;;;;;;20.50;58.30;;;;;;5067406;28;1269;-69
2021/10/02 11:20:29;;;;;;;;;;;20.50;58.30;;;;;;5068150;28;1262;-70
2021/10/02 11:23:13;;;;;;;;;;;20.50;58.20;;;;;;5065171;28;1354;-69
2021/10/02 11:25:39;;;;;;;;;;;20.50;58.10;;;;;;5068766;28;1275;-70
2021/10/02 11:28:24;;;;;;;;;;;20.50;58.10;;;;;;5084185;28;1338;-69
2021/10/02 11:30:49;;;;;;;;;;;20.50;58.30;;;;;;5070931;28;1351;-69
2021/10/02 11:33:33;;;;;;;;;;;20.50;58.30;;;;;;5087858;28;1320;-70
2021/10/02 11:35:59;;;;;;;;;;;20.50;58.30;;;;;;5107700;28;1910;-69
2021/10/02 11:38:35;;;;;;;;;;;20.50;58.40;;;;;;5109436;28;1288;-69
2021/10/02 11:41:00;;;;;;;;;;;20.50;58.30;;;;;;5074617;28;1275;-68
2021/10/02 11:43:26;;;;;;;;;;;20.50;58.30;;;;;;5088600;28;1288;-69
2021/10/02 11:45:59;;;;;;;;;;;20.50;58.40;;;;;;5084274;28;1261;-69
2021/10/02 11:48:38;;;;;;;;;;;20.50;58.30;;;;;;5067176;28;2195;-69
2021/10/02 11:51:18;;;;;;;;;;;20.50;58.30;;;;;;5063796;28;1921;-69
2021/10/02 11:54:04;;;;;;;;;;;20.50;58.30;;;;;;5074528;28;1959;-69
2021/10/02 11:56:29;;;;;;;;;;;20.50;58.20;;;;;;5066650;28;1300;-68
2021/10/02 11:58:58;;;;;;;;;;;20.50;58.00;;;;;;5075774;28;1361;-69
2021/10/02 12:01:24;;;;;;;;;;;20.50;58.10;;;;;;5073933;28;1291;-69
2021/10/02 12:03:57;;;;;;;;;;;20.50;58.10;;;;;;5071313;28;1283;-68
2021/10/02 12:06:23;;;;;;;;;;;20.50;58.10;;;;;;5074492;28;1343;-69
2021/10/02 12:08:48;;;;;;;;;;;20.50;58.00;;;;;;5074781;28;1544;-69
2021/10/02 12:11:14;;;;;;;;;;;20.50;58.00;;;;;;5072829;28;1353;-69
2021/10/02 12:13:43;;;;;;;;;;;20.50;57.80;;;;;;5075422;28;1319;-68
2021/10/02 12:16:18;;;;;;;;;;;20.50;57.70;;;;;;5090379;28;1164;-68
2021/10/02 12:18:53;;;;;;;;;;;20.50;57.70;;;;;;5095053;28;1362;-68
2021/10/02 12:21:27;;;;;;;;;;;20.50;57.80;;;;;;5094046;28;1236;-68
2021/10/02 12:24:03;;;;;;;;;;;20.50;57.60;;;;;;5094820;28;1271;-68
2021/10/02 12:26:29;;;;;;;;;;;20.50;57.80;;;;;;5093450;28;1342;-69
2021/10/02 12:28:55;;;;;;;;;;;20.50;57.60;;;;;;5094587;28;1299;-68
2021/10/02 12:31:20;;;;;;;;;;;20.50;57.70;;;;;;5093426;28;1328;-68
2021/10/02 12:33:46;;;;;;;;;;;20.50;57.80;;;;;;5094012;28;1902;-69
2021/10/02 12:36:11;;;;;;;;;;;20.50;57.70;;;;;;5093259;28;1334;-68
2021/10/02 12:38:43;;;;;;;;;;;20.50;57.60;;;;;;5093196;28;1448;-69
2021/10/02 12:41:09;;;;;;;;;;;20.50;57.60;;;;;;5077358;28;1261;-69
2021/10/02 12:43:34;;;;;;;;;;;20.50;57.60;;;;;;5073915;28;1305;-68
2021/10/02 12:46:00;;;;;;;;;;;20.50;57.60;;;;;;5074052;28;1385;-69
2021/10/02 12:48:25;;;;;;;;;;;20.50;57.70;;;;;;5079227;28;1288;-69
2021/10/02 12:50:51;;;;;;;;;;;20.50;57.60;;;;;;5072980;28;1343;-69
2021/10/02 12:53:19;;;;;;;;;;;20.50;57.50;;;;;;5074399;28;1292;-68
2021/10/02 12:55:45;;;;;;;;;;;20.50;57.60;;;;;;5073594;28;1902;-69
2021/10/02 12:58:17;;;;;;;;;;;20.50;57.50;;;;;;5072538;28;1284;-69
2021/10/02 13:00:42;;;;;;;;;;;20.50;57.50;;;;;;5071975;28;1071;-69
2021/10/02 13:03:10;;;;;;;;;;;20.40;57.80;;;;;;5073979;28;1277;-69
2021/10/02 13:05:36;;;;;;;;;;;20.50;57.80;;;;;;5073563;28;1267;-68
2021/10/02 13:08:05;;;;;;;;;;;20.50;57.70;;;;;;5072754;28;1393;-68
2021/10/02 13:10:30;;;;;;;;;;;20.50;57.40;;;;;;5070999;28;1279;-69
2021/10/02 13:12:55;;;;;;;;;;;20.50;57.10;;;;;;5073386;28;1310;-69
2021/10/02 13:15:28;;;;;;;;;;;20.50;57.30;;;;;;5073467;28;1953;-68
2021/10/02 13:18:00;;;;;;;;;;;20.40;57.40;;;;;;5073966;28;1314;-70
2021/10/02 13:20:26;;;;;;;;;;;20.40;57.80;;;;;;5072726;28;1350;-68
2021/10/02 13:22:51;;;;;;;;;;;20.50;57.80;;;;;;5073004;28;1268;-69
2021/10/02 13:25:28;;;;;;;;;;;20.50;57.70;;;;;;5073099;28;1288;-69
2021/10/02 13:27:55;;;;;;;;;;;20.40;57.60;;;;;;5073350;28;1281;-68
2021/10/02 13:30:21;;;;;;;;;;;20.40;57.60;;;;;;5072248;28;1224;-68
2021/10/02 13:32:54;;;;;;;;;;;20.50;57.70;;;;;;5073186;28;1414;-68
2021/10/02 13:35:20;;;;;;;;;;;20.50;57.80;;;;;;5071729;28;1910;-69
2021/10/02 13:37:46;;;;;;;;;;;20.40;57.80;;;;;;5071412;28;1365;-68
2021/10/02 13:40:18;;;;;;;;;;;20.50;58.00;;;;;;5070964;28;1360;-69
2021/10/02 13:42:45;;;;;;;;;;;20.40;58.00;;;;;;5071987;28;1254;-68
2021/10/02 13:45:11;;;;;;;;;;;20.50;58.20;;;;;;5072961;28;1263;-69
2021/10/02 13:47:36;;;;;;;;;;;20.50;58.30;;;;;;5078194;28;1226;-68
2021/10/02 13:50:01;;;;;;;;;;;20.50;58.50;;;;;;5072069;28;1460;-69
2021/10/02 13:52:27;;;;;;;;;;;20.50;59.30;;;;;;5072562;28;1273;-69
2021/10/02 13:54:52;;;;;;;;;;;20.50;59.20;;;;;;5072654;28;1953;-69
2021/10/02 13:57:18;;;;;;;;;;;20.50;58.60;;;;;;5072386;28;1274;-69
2021/10/02 13:59:43;;;;;;;;;;;20.50;58.40;;;;;;5072480;28;1400;-68
2021/10/02 14:02:09;;;;;;;;;;;20.50;57.90;;;;;;5072292;28;1325;-69
2021/10/02 14:04:34;;;;;;;;;;;20.50;57.60;;;;;;5072152;28;1335;-69
2021/10/02 14:07:05;;;;;;;;;;;20.50;57.30;;;;;;5072464;28;1275;-68
2021/10/02 14:09:31;;;;;;;;;;;20.50;57.20;;;;;;5072594;28;1314;-68
2021/10/02 14:11:56;;;;;;;;;;;20.50;57.30;;;;;;5071486;28;1517;-68
2021/10/02 14:14:22;;;;;;;;;;;20.40;57.40;;;;;;5072506;28;1891;-70
2021/10/02 14:16:47;;;;;;;;;;;20.50;57.60;;;;;;5072591;28;1331;-70
2021/10/02 14:19:13;;;;;;;;;;;20.50;57.70;;;;;;5072322;28;1287;-70
2021/10/02 14:21:38;;;;;;;;;;;20.50;57.90;;;;;;5072431;28;1259;-70
2021/10/02 14:24:04;;;;;;;;;;;20.40;58.10;;;;;;5073644;28;1062;-70
2021/10/02 14:26:29;;;;;;;;;;;20.40;58.40;;;;;;5092435;28;1260;-70
2021/10/02 14:28:55;;;;;;;;;;;20.50;58.50;;;;;;5091697;28;1356;-70
2021/10/02 14:31:20;;;;;;;;;;;20.50;58.50;;;;;;5085590;28;1327;-69
2021/10/02 14:33:47;;;;;;;;;;;20.50;58.60;;;;;;5084393;28;1910;-70
2021/10/02 14:36:12;;;;;;;;;;;20.50;58.60;;;;;;5091962;28;1255;-71
2021/10/02 14:38:39;;;;;;;;;;;20.50;58.60;;;;;;5090745;28;1360;-70
2021/10/02 14:41:05;;;;;;;;;;;20.40;58.50;;;;;;5059256;28;1253;-70
2021/10/02 14:43:30;;;;;;;;;;;20.50;58.60;;;;;;5070914;28;1446;-71
2021/10/02 14:45:56;;;;;;;;;;;20.40;59.60;;;;;;5070878;28;1332;-70
2021/10/02 14:48:21;;;;;;;;;;;20.40;58.80;;;;;;5076537;28;1290;-70
2021/10/02 14:50:47;;;;;;;;;;;20.40;58.90;;;;;;5070676;28;1335;-71
2021/10/02 14:53:12;;;;;;;;;;;20.40;59.00;;;;;;5071005;28;1323;-71
2021/10/02 14:55:37;;;;;;;;;;;20.50;59.00;;;;;;5070274;28;1956;-70
2021/10/02 14:58:04;;;;;;;;;;;20.40;59.10;;;;;;5071146;28;1250;-70
2021/10/02 15:00:29;;;;;;;;;;;20.40;59.10;;;;;;5070283;28;1348;-71
2021/10/02 15:02:55;;;;;;;;;;;20.40;59.30;;;;;;5070587;28;1420;-70
2021/10/02 15:05:20;;;;;;;;;;;20.40;59.20;;;;;;5071632;28;1287;-69
2021/10/02 15:07:46;;;;;;;;;;;20.40;59.30;;;;;;5071563;28;1354;-70
2021/10/02 15:10:12;;;;;;;;;;;20.40;59.30;;;;;;5070858;28;1326;-69
2021/10/02 15:12:37;;;;;;;;;;;20.40;59.30;;;;;;5071970;28;1304;-69
2021/10/02 15:15:03;;;;;;;;;;;20.40;59.40;;;;;;5071593;28;1902;-69
2021/10/02 15:17:29;;;;;;;;;;;20.40;59.40;;;;;;5071623;28;1228;-69
2021/10/02 15:19:54;;;;;;;;;;;20.40;59.50;;;;;;5070104;28;1391;-69
2021/10/02 15:22:20;;;;;;;;;;;20.40;59.40;;;;;;5074938;28;1279;-69
2021/10/02 15:24:51;;;;;;;;;;;20.40;59.50;;;;;;5074957;28;1295;-69